sensor_id;sensor_type;location;lat;lon;timestamp;P1;durP1;ratioP1;P2;durP2;ratioP2
4428;SDS011;2227;47.810;8.810;2022-07-29T03:49:47;5.80;;;5.15;;
4428;SDS011;2227;47.810;8.810;2022-07-29T03:52:17;6.50;;;4.80;;
4428;SDS011;2227;47.810;8.810;2022-07-29T03:54:44;6.25;;;5.30;;
4428;SDS011;2227;47.810;8.810;2022-07-29T03:57:11;6.63;;;5.28;;
4428;SDS011;2227;47.810;8.810;2022-07-29T03:59:40;7.72;;;5.32;;
4428;SDS011;2227;47.810;8.810;2022-07-29T04:02:08;5.90;;;5.07;;
4428;SDS011;2227;47.810;8.810;2022-07-29T04:04:37;7.88;;;5.47;;
4428;SDS011;2227;47.810;8.810;2022-07-29T04:07:04;6.80;;;5.68;;
4428;SDS011;2227;47.810;8.810;2022-07-29T04:09:30;7.55;;;5.30;;
4428;SDS011;2227;47.810;8.810;2022-07-29T04:11:57;6.50;;;5.15;;
4428;SDS011;2227;47.810;8.810;2022-07-29T04:14:30;6.25;;;4.93;;
4428;SDS011;2227;47.810;8.810;2022-07-29T04:17:00;8.20;;;5.80;;
4428;SDS011;2227;47.810;8.810;2022-07-29T04:19:28;6.25;;;5.30;;
4428;SDS011;2227;47.810;8.810;2022-07-29T04:21:56;6.63;;;5.78;;
4428;SDS011;2227;47.810;8.810;2022-07-29T04:24:24;6.13;;;5.03;;
4428;SDS011;2227;47.810;8.810;2022-07-29T04:26:51;6.60;;;5.30;;
4428;SDS011;2227;47.810;8.810;2022-07-29T04:29:18;7.85;;;5.25;;
4428;SDS011;2227;47.810;8.810;2022-07-29T04:31:45;6.65;;;4.63;;
4428;SDS011;2227;47.810;8.810;2022-07-29T04:34:12;6.35;;;4.70;;
4428;SDS011;2227;47.810;8.810;2022-07-29T04:36:39;5.78;;;4.80;;
4428;SDS011;2227;47.810;8.810;2022-07-29T04:39:06;5.85;;;5.00;;
4428;SDS011;2227;47.810;8.810;2022-07-29T04:41:33;5.97;;;4.60;;
4428;SDS011;2227;47.810;8.810;2022-07-29T04:44:00;6.60;;;4.63;;
4428;SDS011;2227;47.810;8.810;2022-07-29T04:46:32;5.72;;;4.50;;
4428;SDS011;2227;47.810;8.810;2022-07-29T04:48:59;6.93;;;4.97;;
4428;SDS011;2227;47.810;8.810;2022-07-29T04:51:26;7.65;;;5.03;;
4428;SDS011;2227;47.810;8.810;2022-07-29T04:53:53;7.15;;;4.93;;
4428;SDS011;2227;47.810;8.810;2022-07-29T04:56:20;7.20;;;4.57;;
4428;SDS011;2227;47.810;8.810;2022-07-29T04:58:47;6.20;;;5.55;;
4428;SDS011;2227;47.810;8.810;2022-07-29T05:01:13;7.63;;;5.28;;
4428;SDS011;2227;47.810;8.810;2022-07-29T05:03:40;8.48;;;5.03;;
4428;SDS011;2227;47.810;8.810;2022-07-29T05:06:07;11.15;;;5.22;;
4428;SDS011;2227;47.810;8.810;2022-07-29T05:08:34;8.20;;;4.60;;
4428;SDS011;2227;47.810;8.810;2022-07-29T05:11:01;8.13;;;5.35;;
4428;SDS011;2227;47.810;8.810;2022-07-29T05:13:38;9.75;;;4.82;;
4428;SDS011;2227;47.810;8.810;2022-07-29T05:16:12;7.18;;;4.82;;
4428;SDS011;2227;47.810;8.810;2022-07-29T05:18:39;10.57;;;5.20;;
4428;SDS011;2227;47.810;8.810;2022-07-29T05:21:06;8.23;;;5.13;;
4428;SDS011;2227;47.810;8.810;2022-07-29T05:23:33;10.85;;;8.00;;
4428;SDS011;2227;47.810;8.810;2022-07-29T05:26:00;11.35;;;8.95;;
4428;SDS011;2227;47.810;8.810;2022-07-29T05:28:27;11.10;;;6.40;;
4428;SDS011;2227;47.810;8.810;2022-07-29T05:30:53;9.75;;;8.02;;
4428;SDS011;2227;47.810;8.810;2022-07-29T05:33:20;11.98;;;7.90;;
4428;SDS011;2227;47.810;8.810;2022-07-29T05:36:02;9.07;;;5.63;;
4428;SDS011;2227;47.810;8.810;2022-07-29T05:38:32;7.38;;;4.85;;
4428;SDS011;2227;47.810;8.810;2022-07-29T05:40:59;8.00;;;6.45;;
4428;SDS011;2227;47.810;8.810;2022-07-29T05:43:27;8.50;;;5.40;;
4428;SDS011;2227;47.810;8.810;2022-07-29T05:45:54;10.80;;;9.70;;
4428;SDS011;2227;47.810;8.810;2022-07-29T05:48:22;7.03;;;5.05;;
4428;SDS011;2227;47.810;8.810;2022-07-29T05:50:49;6.63;;;4.68;;
4428;SDS011;2227;47.810;8.810;2022-07-29T05:53:15;8.02;;;5.50;;
4428;SDS011;2227;47.810;8.810;2022-07-29T05:55:46;5.30;;;4.45;;
4428;SDS011;2227;47.810;8.810;2022-07-29T05:58:13;8.05;;;4.68;;
4428;SDS011;2227;47.810;8.810;2022-07-29T06:00:40;7.50;;;4.70;;
4428;SDS011;2227;47.810;8.810;2022-07-29T06:03:07;9.07;;;6.70;;
4428;SDS011;2227;47.810;8.810;2022-07-29T06:05:34;11.00;;;5.30;;
4428;SDS011;2227;47.810;8.810;2022-07-29T06:08:00;8.07;;;4.93;;
4428;SDS011;2227;47.810;8.810;2022-07-29T06:10:27;7.80;;;4.55;;
4428;SDS011;2227;47.810;8.810;2022-07-29T06:12:54;7.80;;;4.13;;
4428;SDS011;2227;47.810;8.810;2022-07-29T06:15:21;7.63;;;3.92;;
4428;SDS011;2227;47.810;8.810;2022-07-29T06:17:48;6.18;;;3.42;;
4428;SDS011;2227;47.810;8.810;2022-07-29T06:20:29;6.25;;;4.63;;
4428;SDS011;2227;47.810;8.810;2022-07-29T06:22:58;6.00;;;3.72;;
4428;SDS011;2227;47.810;8.810;2022-07-29T06:25:25;6.25;;;3.55;;
4428;SDS011;2227;47.810;8.810;2022-07-29T06:27:55;4.00;;;3.00;;
4428;SDS011;2227;47.810;8.810;2022-07-29T06:30:22;4.90;;;2.90;;
4428;SDS011;2227;47.810;8.810;2022-07-29T06:32:49;5.20;;;3.28;;
4428;SDS011;2227;47.810;8.810;2022-07-29T06:35:16;5.03;;;3.03;;
4428;SDS011;2227;47.810;8.810;2022-07-29T06:38:03;4.80;;;2.60;;
4428;SDS011;2227;47.810;8.810;2022-07-29T06:40:49;4.57;;;3.00;;
4428;SDS011;2227;47.810;8.810;2022-07-29T06:43:32;3.65;;;2.47;;
4428;SDS011;2227;47.810;8.810;2022-07-29T06:46:16;4.20;;;3.03;;
4428;SDS011;2227;47.810;8.810;2022-07-29T06:48:44;4.60;;;2.90;;
4428;SDS011;2227;47.810;8.810;2022-07-29T06:51:11;4.45;;;3.20;;
4428;SDS011;2227;47.810;8.810;2022-07-29T06:53:38;4.47;;;3.17;;
4428;SDS011;2227;47.810;8.810;2022-07-29T06:56:24;5.97;;;3.17;;
4428;SDS011;2227;47.810;8.810;2022-07-29T06:58:51;3.97;;;2.33;;
4428;SDS011;2227;47.810;8.810;2022-07-29T07:01:18;4.40;;;2.30;;
4428;SDS011;2227;47.810;8.810;2022-07-29T07:03:47;7.22;;;2.72;;
4428;SDS011;2227;47.810;8.810;2022-07-29T07:06:13;3.15;;;2.05;;
4428;SDS011;2227;47.810;8.810;2022-07-29T07:08:40;4.40;;;2.58;;
4428;SDS011;2227;47.810;8.810;2022-07-29T07:11:08;4.13;;;2.40;;
4428;SDS011;2227;47.810;8.810;2022-07-29T07:13:35;4.70;;;2.78;;
4428;SDS011;2227;47.810;8.810;2022-07-29T07:16:02;4.93;;;2.45;;
4428;SDS011;2227;47.810;8.810;2022-07-29T07:18:30;4.40;;;2.35;;
4428;SDS011;2227;47.810;8.810;2022-07-29T07:20:57;3.42;;;2.60;;
4428;SDS011;2227;47.810;8.810;2022-07-29T07:23:24;3.75;;;2.35;;
4428;SDS011;2227;47.810;8.810;2022-07-29T07:25:51;3.75;;;2.40;;
4428;SDS011;2227;47.810;8.810;2022-07-29T07:28:18;5.05;;;2.42;;
4428;SDS011;2227;47.810;8.810;2022-07-29T07:30:50;5.88;;;3.10;;
4428;SDS011;2227;47.810;8.810;2022-07-29T07:33:17;5.15;;;2.58;;
4428;SDS011;2227;47.810;8.810;2022-07-29T07:35:44;3.85;;;2.80;;
4428;SDS011;2227;47.810;8.810;2022-07-29T07:38:11;4.60;;;2.80;;
4428;SDS011;2227;47.810;8.810;2022-07-29T07:40:38;6.60;;;3.75;;
4428;SDS011;2227;47.810;8.810;2022-07-29T07:43:06;4.85;;;2.92;;
4428;SDS011;2227;47.810;8.810;2022-07-29T07:45:32;6.43;;;3.17;;
4428;SDS011;2227;47.810;8.810;2022-07-29T07:47:59;6.13;;;4.05;;
4428;SDS011;2227;47.810;8.810;2022-07-29T07:50:26;4.35;;;3.53;;
4428;SDS011;2227;47.810;8.810;2022-07-29T07:52:54;5.47;;;3.33;;
4428;SDS011;2227;47.810;8.810;2022-07-29T07:55:24;4.72;;;3.30;;
4428;SDS011;2227;47.810;8.810;2022-07-29T07:57:52;5.50;;;3.63;;
4428;SDS011;2227;47.810;8.810;2022-07-29T08:00:20;4.93;;;3.33;;
4428;SDS011;2227;47.810;8.810;2022-07-29T08:02:49;5.95;;;3.42;;
4428;SDS011;2227;47.810;8.810;2022-07-29T08:05:16;5.97;;;3.03;;
4428;SDS011;2227;47.810;8.810;2022-07-29T08:07:47;4.65;;;3.00;;
4428;SDS011;2227;47.810;8.810;2022-07-29T08:10:14;5.53;;;2.70;;
4428;SDS011;2227;47.810;8.810;2022-07-29T08:13:03;4.72;;;2.70;;
4428;SDS011;2227;47.810;8.810;2022-07-29T08:15:33;4.90;;;2.63;;
4428;SDS011;2227;47.810;8.810;2022-07-29T08:18:01;4.05;;;2.90;;
4428;SDS011;2227;47.810;8.810;2022-07-29T08:20:34;4.10;;;2.88;;
4428;SDS011;2227;47.810;8.810;2022-07-29T08:23:02;4.30;;;2.78;;
4428;SDS011;2227;47.810;8.810;2022-07-29T08:25:30;4.90;;;2.92;;
4428;SDS011;2227;47.810;8.810;2022-07-29T08:27:57;4.07;;;2.67;;
4428;SDS011;2227;47.810;8.810;2022-07-29T08:30:23;3.97;;;2.80;;
4428;SDS011;2227;47.810;8.810;2022-07-29T08:32:50;4.82;;;3.03;;
4428;SDS011;2227;47.810;8.810;2022-07-29T08:35:21;4.40;;;2.60;;
4428;SDS011;2227;47.810;8.810;2022-07-29T08:37:49;5.07;;;2.63;;
4428;SDS011;2227;47.810;8.810;2022-07-29T08:40:16;4.65;;;2.97;;
4428;SDS011;2227;47.810;8.810;2022-07-29T08:42:43;3.40;;;2.40;;
4428;SDS011;2227;47.810;8.810;2022-07-29T08:45:11;4.43;;;2.55;;
4428;SDS011;2227;47.810;8.810;2022-07-29T08:47:38;3.72;;;2.42;;
4428;SDS011;2227;47.810;8.810;2022-07-29T08:50:09;3.50;;;2.20;;
4428;SDS011;2227;47.810;8.810;2022-07-29T08:52:37;3.70;;;2.40;;
4428;SDS011;2227;47.810;8.810;2022-07-29T08:55:06;4.60;;;2.60;;
4428;SDS011;2227;47.810;8.810;2022-07-29T08:57:34;4.07;;;2.50;;
4428;SDS011;2227;47.810;8.810;2022-07-29T09:00:06;5.25;;;2.60;;
4428;SDS011;2227;47.810;8.810;2022-07-29T09:02:40;4.13;;;2.60;;
4428;SDS011;2227;47.810;8.810;2022-07-29T09:05:11;4.03;;;2.45;;
4428;SDS011;2227;47.810;8.810;2022-07-29T09:07:38;4.95;;;2.42;;
4428;SDS011;2227;47.810;8.810;2022-07-29T09:10:05;4.20;;;2.72;;
4428;SDS011;2227;47.810;8.810;2022-07-29T09:12:33;3.40;;;2.30;;
4428;SDS011;2227;47.810;8.810;2022-07-29T09:15:03;5.32;;;2.20;;
4428;SDS011;2227;47.810;8.810;2022-07-29T09:20:26;4.35;;;2.15;;
4428;SDS011;2227;47.810;8.810;2022-07-29T09:23:13;3.63;;;2.13;;
4428;SDS011;2227;47.810;8.810;2022-07-29T09:25:48;3.67;;;2.55;;
4428;SDS011;2227;47.810;8.810;2022-07-29T09:28:16;3.38;;;2.33;;
4428;SDS011;2227;47.810;8.810;2022-07-29T09:30:54;4.28;;;2.20;;
4428;SDS011;2227;47.810;8.810;2022-07-29T09:33:30;4.38;;;2.50;;
4428;SDS011;2227;47.810;8.810;2022-07-29T09:36:04;3.85;;;2.33;;
4428;SDS011;2227;47.810;8.810;2022-07-29T09:38:33;4.37;;;2.57;;
4428;SDS011;2227;47.810;8.810;2022-07-29T09:41:05;4.05;;;2.40;;
4428;SDS011;2227;47.810;8.810;2022-07-29T09:43:34;3.05;;;2.30;;
4428;SDS011;2227;47.810;8.810;2022-07-29T09:46:13;3.58;;;2.60;;
4428;SDS011;2227;47.810;8.810;2022-07-29T09:48:40;3.85;;;2.67;;
4428;SDS011;2227;47.810;8.810;2022-07-29T09:51:17;3.38;;;2.30;;
4428;SDS011;2227;47.810;8.810;2022-07-29T09:53:49;5.10;;;2.80;;
4428;SDS011;2227;47.810;8.810;2022-07-29T09:56:18;7.40;;;3.10;;
4428;SDS011;2227;47.810;8.810;2022-07-29T09:58:45;3.80;;;2.70;;
4428;SDS011;2227;47.810;8.810;2022-07-29T10:01:12;6.38;;;3.17;;
4428;SDS011;2227;47.810;8.810;2022-07-29T10:03:51;5.18;;;3.00;;
4428;SDS011;2227;47.810;8.810;2022-07-29T10:06:18;4.05;;;2.63;;
4428;SDS011;2227;47.810;8.810;2022-07-29T10:08:45;5.43;;;2.97;;
4428;SDS011;2227;47.810;8.810;2022-07-29T10:11:14;4.40;;;2.90;;
4428;SDS011;2227;47.810;8.810;2022-07-29T10:13:42;4.68;;;3.00;;
4428;SDS011;2227;47.810;8.810;2022-07-29T10:16:11;5.40;;;3.50;;
4428;SDS011;2227;47.810;8.810;2022-07-29T10:18:39;4.97;;;3.53;;
4428;SDS011;2227;47.810;8.810;2022-07-29T10:21:10;5.07;;;3.40;;
4428;SDS011;2227;47.810;8.810;2022-07-29T10:23:57;5.45;;;3.45;;
4428;SDS011;2227;47.810;8.810;2022-07-29T10:26:26;4.57;;;3.45;;
4428;SDS011;2227;47.810;8.810;2022-07-29T10:28:55;4.47;;;3.28;;
4428;SDS011;2227;47.810;8.810;2022-07-29T10:31:27;5.13;;;2.95;;
4428;SDS011;2227;47.810;8.810;2022-07-29T10:34:05;4.85;;;2.83;;
4428;SDS011;2227;47.810;8.810;2022-07-29T10:36:56;4.97;;;2.90;;
4428;SDS011;2227;47.810;8.810;2022-07-29T10:44:58;4.63;;;2.50;;
4428;SDS011;2227;47.810;8.810;2022-07-29T10:47:25;4.25;;;2.65;;
4428;SDS011;2227;47.810;8.810;2022-07-29T10:49:59;5.30;;;2.50;;
4428;SDS011;2227;47.810;8.810;2022-07-29T10:58:19;4.88;;;2.55;;
4428;SDS011;2227;47.810;8.810;2022-07-29T11:00:48;3.97;;;2.60;;
4428;SDS011;2227;47.810;8.810;2022-07-29T11:06:17;4.10;;;2.75;;
4428;SDS011;2227;47.810;8.810;2022-07-29T11:20:38;5.05;;;2.95;;
4428;SDS011;2227;47.810;8.810;2022-07-29T11:29:02;6.15;;;3.20;;
4428;SDS011;2227;47.810;8.810;2022-07-29T11:48:03;4.47;;;2.60;;
4428;SDS011;2227;47.810;8.810;2022-07-29T11:50:51;4.22;;;2.72;;
4428;SDS011;2227;47.810;8.810;2022-07-29T11:53:18;3.92;;;2.15;;
4428;SDS011;2227;47.810;8.810;2022-07-29T11:55:45;4.57;;;3.08;;
4428;SDS011;2227;47.810;8.810;2022-07-29T11:58:23;4.15;;;2.80;;
4428;SDS011;2227;47.810;8.810;2022-07-29T12:00:51;5.25;;;3.15;;
4428;SDS011;2227;47.810;8.810;2022-07-29T12:03:27;3.90;;;2.58;;
4428;SDS011;2227;47.810;8.810;2022-07-29T12:06:00;5.13;;;4.10;;
4428;SDS011;2227;47.810;8.810;2022-07-29T12:08:28;5.32;;;3.47;;
4428;SDS011;2227;47.810;8.810;2022-07-29T12:10:56;3.35;;;2.25;;
4428;SDS011;2227;47.810;8.810;2022-07-29T12:13:23;4.43;;;2.38;;
4428;SDS011;2227;47.810;8.810;2022-07-29T12:16:03;4.10;;;2.40;;
4428;SDS011;2227;47.810;8.810;2022-07-29T12:18:30;4.40;;;2.60;;
4428;SDS011;2227;47.810;8.810;2022-07-29T12:20:58;2.88;;;2.28;;
4428;SDS011;2227;47.810;8.810;2022-07-29T12:23:29;4.07;;;2.55;;
4428;SDS011;2227;47.810;8.810;2022-07-29T12:26:00;3.00;;;2.30;;
4428;SDS011;2227;47.810;8.810;2022-07-29T12:28:47;3.95;;;2.47;;
4428;SDS011;2227;47.810;8.810;2022-07-29T12:31:15;6.68;;;2.67;;
4428;SDS011;2227;47.810;8.810;2022-07-29T12:34:02;4.75;;;2.50;;
4428;SDS011;2227;47.810;8.810;2022-07-29T12:36:29;4.60;;;2.35;;
4428;SDS011;2227;47.810;8.810;2022-07-29T12:38:56;4.28;;;2.30;;
4428;SDS011;2227;47.810;8.810;2022-07-29T12:41:23;2.72;;;2.08;;
4428;SDS011;2227;47.810;8.810;2022-07-29T12:43:53;3.20;;;1.90;;
4428;SDS011;2227;47.810;8.810;2022-07-29T12:46:21;3.45;;;2.28;;
4428;SDS011;2227;47.810;8.810;2022-07-29T12:48:50;5.43;;;2.40;;
4428;SDS011;2227;47.810;8.810;2022-07-29T12:54:12;2.97;;;2.08;;
4428;SDS011;2227;47.810;8.810;2022-07-29T12:56:40;4.03;;;2.22;;
4428;SDS011;2227;47.810;8.810;2022-07-29T12:59:18;6.05;;;2.50;;
4428;SDS011;2227;47.810;8.810;2022-07-29T13:01:47;3.97;;;2.28;;
4428;SDS011;2227;47.810;8.810;2022-07-29T13:04:29;4.53;;;2.45;;
4428;SDS011;2227;47.810;8.810;2022-07-29T13:07:00;5.13;;;2.67;;
4428;SDS011;2227;47.810;8.810;2022-07-29T13:09:51;4.93;;;2.55;;
4428;SDS011;2227;47.810;8.810;2022-07-29T13:12:18;3.35;;;2.35;;
4428;SDS011;2227;47.810;8.810;2022-07-29T13:14:45;3.88;;;2.67;;
4428;SDS011;2227;47.810;8.810;2022-07-29T13:19:49;3.70;;;2.50;;
4428;SDS011;2227;47.810;8.810;2022-07-29T13:22:21;5.37;;;2.67;;
4428;SDS011;2227;47.810;8.810;2022-07-29T13:24:59;3.53;;;2.70;;
4428;SDS011;2227;47.810;8.810;2022-07-29T13:27:32;4.45;;;2.35;;
4428;SDS011;2227;47.810;8.810;2022-07-29T13:30:06;5.28;;;2.70;;
4428;SDS011;2227;47.810;8.810;2022-07-29T13:32:35;4.15;;;2.47;;
4428;SDS011;2227;47.810;8.810;2022-07-29T13:35:04;3.95;;;2.20;;
4428;SDS011;2227;47.810;8.810;2022-07-29T13:37:33;3.10;;;2.10;;
4428;SDS011;2227;47.810;8.810;2022-07-29T13:40:01;3.25;;;1.88;;
4428;SDS011;2227;47.810;8.810;2022-07-29T13:42:29;6.22;;;1.85;;
4428;SDS011;2227;47.810;8.810;2022-07-29T13:44:57;3.35;;;2.65;;
4428;SDS011;2227;47.810;8.810;2022-07-29T13:47:25;3.08;;;1.98;;
4428;SDS011;2227;47.810;8.810;2022-07-29T13:49:58;4.13;;;2.17;;
4428;SDS011;2227;47.810;8.810;2022-07-29T13:52:27;3.47;;;1.80;;
4428;SDS011;2227;47.810;8.810;2022-07-29T13:54:53;2.55;;;1.50;;
4428;SDS011;2227;47.810;8.810;2022-07-29T13:57:20;2.85;;;2.10;;
4428;SDS011;2227;47.810;8.810;2022-07-29T13:59:47;3.17;;;1.77;;
4428;SDS011;2227;47.810;8.810;2022-07-29T14:02:19;3.63;;;1.75;;
4428;SDS011;2227;47.810;8.810;2022-07-29T14:04:50;2.20;;;1.45;;
4428;SDS011;2227;47.810;8.810;2022-07-29T14:07:17;5.22;;;2.20;;
4428;SDS011;2227;47.810;8.810;2022-07-29T14:09:44;3.83;;;1.70;;
4428;SDS011;2227;47.810;8.810;2022-07-29T14:12:11;2.05;;;1.48;;
4428;SDS011;2227;47.810;8.810;2022-07-29T14:14:38;2.60;;;1.50;;
4428;SDS011;2227;47.810;8.810;2022-07-29T14:17:04;2.35;;;1.80;;
4428;SDS011;2227;47.810;8.810;2022-07-29T14:19:33;3.08;;;1.77;;
4428;SDS011;2227;47.810;8.810;2022-07-29T14:22:04;2.67;;;1.92;;
4428;SDS011;2227;47.810;8.810;2022-07-29T14:24:34;5.03;;;2.50;;
4428;SDS011;2227;47.810;8.810;2022-07-29T14:27:02;4.30;;;2.17;;
4428;SDS011;2227;47.810;8.810;2022-07-29T14:29:30;2.90;;;1.92;;
4428;SDS011;2227;47.810;8.810;2022-07-29T14:32:04;3.08;;;2.17;;
4428;SDS011;2227;47.810;8.810;2022-07-29T14:34:33;3.80;;;2.03;;
4428;SDS011;2227;47.810;8.810;2022-07-29T14:37:00;3.38;;;2.75;;
4428;SDS011;2227;47.810;8.810;2022-07-29T14:39:27;4.22;;;2.40;;
4428;SDS011;2227;47.810;8.810;2022-07-29T14:41:57;3.22;;;2.28;;
4428;SDS011;2227;47.810;8.810;2022-07-29T14:44:24;3.08;;;1.70;;
4428;SDS011;2227;47.810;8.810;2022-07-29T14:46:58;4.77;;;2.00;;
4428;SDS011;2227;47.810;8.810;2022-07-29T14:49:29;3.13;;;1.90;;
4428;SDS011;2227;47.810;8.810;2022-07-29T14:51:56;3.17;;;1.88;;
4428;SDS011;2227;47.810;8.810;2022-07-29T14:54:23;3.38;;;2.08;;
4428;SDS011;2227;47.810;8.810;2022-07-29T14:56:50;3.20;;;1.73;;
4428;SDS011;2227;47.810;8.810;2022-07-29T14:59:17;2.83;;;1.75;;
4428;SDS011;2227;47.810;8.810;2022-07-29T15:01:44;3.58;;;2.67;;
4428;SDS011;2227;47.810;8.810;2022-07-29T15:04:11;4.07;;;1.60;;
4428;SDS011;2227;47.810;8.810;2022-07-29T15:06:38;3.08;;;1.60;;
4428;SDS011;2227;47.810;8.810;2022-07-29T15:09:05;2.90;;;1.73;;
4428;SDS011;2227;47.810;8.810;2022-07-29T15:11:31;5.38;;;4.30;;
4428;SDS011;2227;47.810;8.810;2022-07-29T15:14:03;2.42;;;1.48;;
4428;SDS011;2227;47.810;8.810;2022-07-29T15:16:32;2.30;;;1.38;;
4428;SDS011;2227;47.810;8.810;2022-07-29T15:18:59;5.05;;;1.88;;
4428;SDS011;2227;47.810;8.810;2022-07-29T15:21:26;2.47;;;1.75;;
4428;SDS011;2227;47.810;8.810;2022-07-29T15:23:53;2.60;;;1.40;;
4428;SDS011;2227;47.810;8.810;2022-07-29T15:26:20;2.30;;;1.40;;
4428;SDS011;2227;47.810;8.810;2022-07-29T15:28:47;2.17;;;1.30;;
4428;SDS011;2227;47.810;8.810;2022-07-29T15:31:14;1.92;;;1.35;;
4428;SDS011;2227;47.810;8.810;2022-07-29T15:33:41;2.33;;;1.17;;
4428;SDS011;2227;47.810;8.810;2022-07-29T15:36:08;3.25;;;1.83;;
4428;SDS011;2227;47.810;8.810;2022-07-29T15:38:34;6.00;;;2.63;;
4428;SDS011;2227;47.810;8.810;2022-07-29T15:41:07;5.80;;;2.83;;
4428;SDS011;2227;47.810;8.810;2022-07-29T15:43:33;5.20;;;3.00;;
4428;SDS011;2227;47.810;8.810;2022-07-29T15:46:03;5.70;;;2.78;;
4428;SDS011;2227;47.810;8.810;2022-07-29T15:48:48;5.03;;;2.78;;
4428;SDS011;2227;47.810;8.810;2022-07-29T15:51:15;6.00;;;2.83;;
4428;SDS011;2227;47.810;8.810;2022-07-29T15:53:42;5.10;;;3.20;;
4428;SDS011;2227;47.810;8.810;2022-07-29T15:56:18;4.90;;;3.08;;
4428;SDS011;2227;47.810;8.810;2022-07-29T15:58:45;5.78;;;3.20;;
4428;SDS011;2227;47.810;8.810;2022-07-29T16:01:21;4.53;;;3.10;;
4428;SDS011;2227;47.810;8.810;2022-07-29T16:03:48;4.90;;;3.22;;
4428;SDS011;2227;47.810;8.810;2022-07-29T16:06:15;4.95;;;3.10;;
4428;SDS011;2227;47.810;8.810;2022-07-29T16:08:42;5.68;;;3.05;;
4428;SDS011;2227;47.810;8.810;2022-07-29T16:11:09;4.40;;;3.13;;
4428;SDS011;2227;47.810;8.810;2022-07-29T16:13:36;5.95;;;3.00;;
4428;SDS011;2227;47.810;8.810;2022-07-29T16:16:03;4.47;;;3.10;;
4428;SDS011;2227;47.810;8.810;2022-07-29T16:18:30;4.82;;;2.85;;
4428;SDS011;2227;47.810;8.810;2022-07-29T16:20:57;5.60;;;3.40;;
4428;SDS011;2227;47.810;8.810;2022-07-29T16:23:24;4.35;;;2.83;;
4428;SDS011;2227;47.810;8.810;2022-07-29T16:25:51;4.55;;;3.17;;
4428;SDS011;2227;47.810;8.810;2022-07-29T16:28:27;7.00;;;3.85;;
4428;SDS011;2227;47.810;8.810;2022-07-29T16:30:54;4.55;;;3.58;;
4428;SDS011;2227;47.810;8.810;2022-07-29T16:33:20;5.45;;;3.72;;
4428;SDS011;2227;47.810;8.810;2022-07-29T16:35:48;5.05;;;3.13;;
4428;SDS011;2227;47.810;8.810;2022-07-29T16:38:16;5.20;;;3.75;;
4428;SDS011;2227;47.810;8.810;2022-07-29T16:40:43;5.15;;;3.60;;
4428;SDS011;2227;47.810;8.810;2022-07-29T16:43:09;5.47;;;3.70;;
4428;SDS011;2227;47.810;8.810;2022-07-29T16:45:36;6.30;;;3.80;;
4428;SDS011;2227;47.810;8.810;2022-07-29T16:48:12;6.00;;;4.18;;
4428;SDS011;2227;47.810;8.810;2022-07-29T16:50:39;7.28;;;3.80;;
4428;SDS011;2227;47.810;8.810;2022-07-29T16:53:09;5.30;;;3.78;;
4428;SDS011;2227;47.810;8.810;2022-07-29T16:55:36;5.63;;;3.80;;
4428;SDS011;2227;47.810;8.810;2022-07-29T16:58:03;5.90;;;3.90;;
4428;SDS011;2227;47.810;8.810;2022-07-29T17:00:30;4.95;;;3.55;;
4428;SDS011;2227;47.810;8.810;2022-07-29T17:02:57;4.68;;;3.33;;
4428;SDS011;2227;47.810;8.810;2022-07-29T17:05:27;4.63;;;3.60;;
4428;SDS011;2227;47.810;8.810;2022-07-29T17:08:14;5.20;;;4.07;;
4428;SDS011;2227;47.810;8.810;2022-07-29T17:10:41;5.35;;;4.10;;
4428;SDS011;2227;47.810;8.810;2022-07-29T17:13:08;5.90;;;4.20;;
4428;SDS011;2227;47.810;8.810;2022-07-29T17:15:35;6.28;;;4.18;;
4428;SDS011;2227;47.810;8.810;2022-07-29T17:18:01;6.05;;;3.88;;
4428;SDS011;2227;47.810;8.810;2022-07-29T17:20:39;6.53;;;4.20;;
4428;SDS011;2227;47.810;8.810;2022-07-29T17:23:06;7.10;;;4.30;;
4428;SDS011;2227;47.810;8.810;2022-07-29T17:25:33;5.28;;;4.18;;
4428;SDS011;2227;47.810;8.810;2022-07-29T17:28:00;5.90;;;4.50;;
4428;SDS011;2227;47.810;8.810;2022-07-29T17:30:27;4.85;;;4.15;;
4428;SDS011;2227;47.810;8.810;2022-07-29T17:32:54;5.28;;;3.97;;
4428;SDS011;2227;47.810;8.810;2022-07-29T17:35:21;5.38;;;3.63;;
4428;SDS011;2227;47.810;8.810;2022-07-29T17:38:07;7.05;;;4.22;;
4428;SDS011;2227;47.810;8.810;2022-07-29T17:40:33;4.97;;;4.47;;
4428;SDS011;2227;47.810;8.810;2022-07-29T17:43:00;5.10;;;4.22;;
4428;SDS011;2227;47.810;8.810;2022-07-29T17:45:27;5.38;;;4.32;;
4428;SDS011;2227;47.810;8.810;2022-07-29T17:48:14;6.20;;;4.15;;
4428;SDS011;2227;47.810;8.810;2022-07-29T17:50:40;5.72;;;4.65;;
4428;SDS011;2227;47.810;8.810;2022-07-29T17:53:07;7.47;;;4.55;;
4428;SDS011;2227;47.810;8.810;2022-07-29T17:55:41;6.03;;;4.70;;
4428;SDS011;2227;47.810;8.810;2022-07-29T17:58:10;5.53;;;4.28;;
4428;SDS011;2227;47.810;8.810;2022-07-29T18:00:37;5.97;;;4.63;;
4428;SDS011;2227;47.810;8.810;2022-07-29T18:03:04;6.15;;;4.28;;
4428;SDS011;2227;47.810;8.810;2022-07-29T18:05:32;7.97;;;4.50;;
4428;SDS011;2227;47.810;8.810;2022-07-29T18:07:59;6.57;;;4.38;;
4428;SDS011;2227;47.810;8.810;2022-07-29T18:10:26;5.85;;;3.90;;
4428;SDS011;2227;47.810;8.810;2022-07-29T18:12:53;6.57;;;4.03;;
4428;SDS011;2227;47.810;8.810;2022-07-29T18:15:19;5.80;;;4.35;;
4428;SDS011;2227;47.810;8.810;2022-07-29T18:17:46;6.63;;;4.32;;
4428;SDS011;2227;47.810;8.810;2022-07-29T18:20:23;6.25;;;3.95;;
4428;SDS011;2227;47.810;8.810;2022-07-29T18:22:50;5.47;;;4.28;;
4428;SDS011;2227;47.810;8.810;2022-07-29T18:25:19;5.85;;;4.55;;
4428;SDS011;2227;47.810;8.810;2022-07-29T18:27:46;5.78;;;3.88;;
4428;SDS011;2227;47.810;8.810;2022-07-29T18:30:13;4.95;;;4.10;;
4428;SDS011;2227;47.810;8.810;2022-07-29T18:32:42;6.20;;;4.55;;
4428;SDS011;2227;47.810;8.810;2022-07-29T18:35:29;5.40;;;3.80;;
4428;SDS011;2227;47.810;8.810;2022-07-29T18:37:57;5.47;;;4.00;;
4428;SDS011;2227;47.810;8.810;2022-07-29T18:40:28;5.78;;;4.35;;
4428;SDS011;2227;47.810;8.810;2022-07-29T18:42:55;4.82;;;4.20;;
4428;SDS011;2227;47.810;8.810;2022-07-29T18:45:21;6.47;;;4.28;;
4428;SDS011;2227;47.810;8.810;2022-07-29T18:47:53;5.30;;;4.53;;
4428;SDS011;2227;47.810;8.810;2022-07-29T18:50:21;5.70;;;4.70;;
4428;SDS011;2227;47.810;8.810;2022-07-29T18:52:54;5.40;;;4.80;;
4428;SDS011;2227;47.810;8.810;2022-07-29T18:55:26;4.75;;;4.25;;
4428;SDS011;2227;47.810;8.810;2022-07-29T18:57:53;5.10;;;4.30;;
4428;SDS011;2227;47.810;8.810;2022-07-29T19:00:23;5.35;;;4.20;;
4428;SDS011;2227;47.810;8.810;2022-07-29T19:02:50;8.13;;;4.88;;
4428;SDS011;2227;47.810;8.810;2022-07-29T19:05:18;5.97;;;4.55;;
4428;SDS011;2227;47.810;8.810;2022-07-29T19:07:45;5.43;;;4.45;;
4428;SDS011;2227;47.810;8.810;2022-07-29T19:10:11;6.72;;;4.38;;
4428;SDS011;2227;47.810;8.810;2022-07-29T19:12:38;5.93;;;4.57;;
4428;SDS011;2227;47.810;8.810;2022-07-29T19:15:06;5.40;;;4.63;;
4428;SDS011;2227;47.810;8.810;2022-07-29T19:17:35;5.97;;;4.60;;
4428;SDS011;2227;47.810;8.810;2022-07-29T19:20:02;5.85;;;4.10;;
4428;SDS011;2227;47.810;8.810;2022-07-29T19:22:29;4.95;;;3.78;;
4428;SDS011;2227;47.810;8.810;2022-07-29T19:24:56;5.43;;;3.90;;
4428;SDS011;2227;47.810;8.810;2022-07-29T19:27:23;4.63;;;3.72;;
4428;SDS011;2227;47.810;8.810;2022-07-29T19:29:50;5.65;;;3.83;;
4428;SDS011;2227;47.810;8.810;2022-07-29T19:32:17;4.90;;;3.80;;
4428;SDS011;2227;47.810;8.810;2022-07-29T19:34:50;5.00;;;3.45;;
4428;SDS011;2227;47.810;8.810;2022-07-29T19:37:36;4.07;;;3.28;;
4428;SDS011;2227;47.810;8.810;2022-07-29T19:40:03;4.75;;;3.95;;
4428;SDS011;2227;47.810;8.810;2022-07-29T19:42:31;4.75;;;3.70;;
4428;SDS011;2227;47.810;8.810;2022-07-29T19:44:57;4.70;;;3.78;;
4428;SDS011;2227;47.810;8.810;2022-07-29T19:47:24;6.00;;;3.92;;
4428;SDS011;2227;47.810;8.810;2022-07-29T19:49:51;5.00;;;3.00;;
4428;SDS011;2227;47.810;8.810;2022-07-29T19:52:18;5.80;;;3.90;;
4428;SDS011;2227;47.810;8.810;2022-07-29T19:54:44;5.45;;;4.10;;
4428;SDS011;2227;47.810;8.810;2022-07-29T19:57:11;6.20;;;3.58;;
4428;SDS011;2227;47.810;8.810;2022-07-29T19:59:39;4.13;;;3.15;;
4428;SDS011;2227;47.810;8.810;2022-07-29T20:02:06;4.75;;;3.65;;
4428;SDS011;2227;47.810;8.810;2022-07-29T20:04:36;4.78;;;3.30;;
4428;SDS011;2227;47.810;8.810;2022-07-29T20:07:03;4.80;;;3.13;;
4428;SDS011;2227;47.810;8.810;2022-07-29T20:09:31;4.97;;;3.45;;
4428;SDS011;2227;47.810;8.810;2022-07-29T20:11:58;4.40;;;3.03;;
4428;SDS011;2227;47.810;8.810;2022-07-29T20:14:24;4.78;;;3.17;;